Time;durP1;ratioP1;P1;durP2;ratioP2;P2;SDS_P1;SDS_P2;PMS_P1;PMS_P2;Temp;Humidity;BMP_temperature;BMP_pressure;BME280_temperature;BME280_humidity;BME280_pressure;Samples;Min_cycle;Max_cycle;Signal;HPM_P1;HPM_P2
2023/05/26 00:02:24;;;;;;;0.50;0.40;;;10.60;99.90;;;;;;5073499;28;20196;-80
2023/05/26 00:04:51;;;;;;;0.50;0.40;;;10.50;99.90;;;;;;5073538;28;20190;-81
2023/05/26 00:07:18;;;;;;;0.50;0.40;;;10.50;99.90;;;;;;5073336;28;20630;-79
2023/05/26 00:09:45;;;;;;;0.50;0.40;;;10.50;99.90;;;;;;5073759;28;20218;-81
2023/05/26 00:12:13;;;;;;;0.80;0.60;;;10.50;99.90;;;;;;5073365;28;20803;-82
2023/05/26 00:14:40;;;;;;;1.13;1.02;;;10.50;99.90;;;;;;5073422;28;20273;-81
2023/05/26 00:17:07;;;;;;;0.50;0.40;;;10.40;99.90;;;;;;5072933;28;20215;-79
2023/05/26 00:19:37;;;;;;;0.50;0.50;;;10.40;99.90;;;;;;5073185;28;20719;-80
2023/05/26 00:22:04;;;;;;;0.50;0.40;;;10.30;99.90;;;;;;5073528;28;20279;-80
2023/05/26 00:24:31;;;;;;;0.50;0.40;;;10.20;99.90;;;;;;5073845;28;20276;-81
2023/05/26 00:26:58;;;;;;;0.50;0.40;;;10.20;99.90;;;;;;5073162;28;20189;-81
2023/05/26 00:29:26;;;;;;;0.90;0.90;;;10.20;99.90;;;;;;5072745;28;20708;-81
2023/05/26 00:31:53;;;;;;;0.50;0.40;;;10.20;99.90;;;;;;5073460;28;20197;-81
2023/05/26 00:34:20;;;;;;;0.50;0.40;;;10.10;99.90;;;;;;5059583;22;20215;-79
2023/05/26 00:36:47;;;;;;;3.05;0.95;;;10.10;99.90;;;;;;5037777;28;20205;-79
2023/05/26 00:39:14;;;;;;;0.50;0.40;;;10.10;99.90;;;;;;5038595;28;20199;-79
2023/05/26 00:41:41;;;;;;;0.50;0.40;;;10.10;99.90;;;;;;5039495;28;20196;-79
2023/05/26 00:44:08;;;;;;;1.02;1.02;;;9.90;99.90;;;;;;5038125;28;20218;-78
2023/05/26 00:46:36;;;;;;;0.82;0.82;;;9.90;99.90;;;;;;5038837;28;20292;-79
2023/05/26 00:49:04;;;;;;;0.50;0.40;;;9.90;99.90;;;;;;5039130;28;20258;-79
2023/05/26 00:51:32;;;;;;;0.50;0.40;;;9.80;99.90;;;;;;5038472;28;20195;-79
2023/05/26 00:54:00;;;;;;;1.35;1.25;;;9.80;99.90;;;;;;5038224;28;20283;-79
2023/05/26 00:56:28;;;;;;;0.50;0.40;;;9.70;99.90;;;;;;5038667;28;20282;-79
2023/05/26 00:58:55;;;;;;;0.50;0.40;;;9.60;99.90;;;;;;5039520;28;20281;-79
2023/05/26 01:01:23;;;;;;;0.50;0.40;;;9.40;99.90;;;;;;5039455;28;20266;-79
2023/05/26 01:03:51;;;;;;;0.50;0.40;;;9.40;99.90;;;;;;5038119;28;20211;-79
2023/05/26 01:06:18;;;;;;;0.50;0.40;;;9.40;99.90;;;;;;5039105;28;20263;-79
2023/05/26 01:08:45;;;;;;;0.50;0.40;;;9.30;99.90;;;;;;5038995;28;20209;-79
2023/05/26 01:11:17;;;;;;;0.50;0.40;;;9.30;99.90;;;;;;5038359;28;20227;-79
2023/05/26 01:13:52;;;;;;;0.50;0.40;;;9.30;99.90;;;;;;5038250;28;20241;-79
2023/05/26 01:16:22;;;;;;;0.50;0.40;;;9.20;99.90;;;;;;5038748;28;20226;-79
2023/05/26 01:18:55;;;;;;;0.50;0.40;;;9.20;99.90;;;;;;5039584;28;20306;-79
2023/05/26 01:21:23;;;;;;;0.50;0.40;;;9.20;99.90;;;;;;5038360;28;20199;-79
2023/05/26 01:24:05;;;;;;;0.50;0.40;;;9.10;99.90;;;;;;5039225;28;20306;-79
2023/05/26 01:26:53;;;;;;;0.50;0.40;;;9.10;99.90;;;;;;5038557;28;20234;-79
2023/05/26 01:29:23;;;;;;;0.60;0.50;;;9.10;99.90;;;;;;5038529;28;20274;-79
2023/05/26 01:31:50;;;;;;;0.50;0.40;;;9.10;99.90;;;;;;5039346;28;20286;-79
2023/05/26 01:34:16;;;;;;;1.88;1.77;;;9.00;99.90;;;;;;5038535;28;20238;-79
2023/05/26 01:36:43;;;;;;;0.50;0.40;;;9.00;99.90;;;;;;5039180;28;20259;-79
2023/05/26 01:39:11;;;;;;;0.65;0.63;;;9.00;99.90;;;;;;5042150;28;20200;-79
2023/05/26 01:41:44;;;;;;;0.50;0.40;;;9.00;99.90;;;;;;5035308;28;20195;-79
2023/05/26 01:44:17;;;;;;;0.50;0.40;;;9.00;99.90;;;;;;5041745;28;20226;-79
2023/05/26 01:46:48;;;;;;;0.50;0.40;;;8.90;99.90;;;;;;5034400;28;20219;-79
2023/05/26 01:49:16;;;;;;;0.50;0.40;;;8.90;99.90;;;;;;5042949;28;20199;-78
2023/05/26 01:51:47;;;;;;;0.50;0.50;;;8.80;99.90;;;;;;5042364;28;20198;-79
2023/05/26 01:54:17;;;;;;;0.50;0.40;;;8.80;99.90;;;;;;5041579;28;20286;-78
2023/05/26 01:56:45;;;;;;;0.50;0.40;;;8.80;99.90;;;;;;5041867;28;20211;-79
2023/05/26 01:59:13;;;;;;;0.50;0.40;;;8.70;99.90;;;;;;5042662;28;20291;-79
2023/05/26 02:01:40;;;;;;;0.50;0.40;;;8.70;99.90;;;;;;5034114;28;20195;-79
2023/05/26 02:04:10;;;;;;;0.50;0.40;;;8.70;99.90;;;;;;5049257;28;20215;-79
2023/05/26 02:06:37;;;;;;;0.50;0.50;;;8.70;99.90;;;;;;5056096;28;20192;-78
2023/05/26 02:09:05;;;;;;;0.50;0.40;;;8.60;99.90;;;;;;5056273;28;20206;-79
2023/05/26 02:11:32;;;;;;;0.60;0.50;;;8.60;99.90;;;;;;5056203;28;20195;-79
2023/05/26 02:13:59;;;;;;;0.60;0.60;;;8.50;99.90;;;;;;5055511;28;20230;-79
2023/05/26 02:16:26;;;;;;;0.50;0.40;;;8.50;99.90;;;;;;5042876;28;20230;-78
2023/05/26 02:18:54;;;;;;;0.50;0.40;;;8.50;99.90;;;;;;5041330;28;20199;-79
2023/05/26 02:21:22;;;;;;;0.50;0.40;;;8.50;99.90;;;;;;5041065;28;20254;-79
2023/05/26 02:23:49;;;;;;;0.50;0.40;;;8.30;99.90;;;;;;5041828;28;20251;-79
2023/05/26 02:26:16;;;;;;;0.50;0.40;;;8.40;99.90;;;;;;5041299;28;20199;-78
2023/05/26 02:28:43;;;;;;;0.50;0.40;;;8.30;99.90;;;;;;5040311;28;20578;-77
2023/05/26 02:31:10;;;;;;;0.50;0.40;;;8.30;99.90;;;;;;5038576;28;20283;-78
2023/05/26 02:33:41;;;;;;;0.50;0.40;;;8.20;99.90;;;;;;5037629;28;20247;-78
2023/05/26 02:36:08;;;;;;;0.50;0.40;;;8.20;99.90;;;;;;5038111;28;20214;-78
2023/05/26 02:38:36;;;;;;;0.50;0.40;;;8.20;99.90;;;;;;5037330;28;20203;-78
2023/05/26 02:41:03;;;;;;;0.50;0.40;;;8.20;99.90;;;;;;5037409;28;20266;-78
2023/05/26 02:43:30;;;;;;;0.50;0.40;;;8.20;99.90;;;;;;5036689;28;20226;-79
2023/05/26 02:45:56;;;;;;;0.50;0.40;;;8.20;99.90;;;;;;5035812;28;20214;-78
2023/05/26 02:48:23;;;;;;;0.50;0.47;;;8.20;99.90;;;;;;5035522;28;20282;-78
2023/05/26 02:50:50;;;;;;;0.50;0.40;;;8.20;99.90;;;;;;5036469;28;20290;-78
2023/05/26 02:53:18;;;;;;;0.50;0.40;;;8.20;99.90;;;;;;5036271;28;20211;-78
2023/05/26 02:55:46;;;;;;;0.50;0.40;;;8.20;99.90;;;;;;5037121;28;20207;-78
2023/05/26 02:58:13;;;;;;;0.50;0.40;;;8.20;99.90;;;;;;5037501;28;20678;-78
2023/05/26 03:00:40;;;;;;;0.50;0.50;;;8.10;99.90;;;;;;5038043;28;20195;-79
2023/05/26 03:03:07;;;;;;;0.50;0.40;;;8.10;99.90;;;;;;5037509;28;20302;-78
2023/05/26 03:05:34;;;;;;;0.50;0.40;;;8.10;99.90;;;;;;5037802;28;20282;-78
2023/05/26 03:08:03;;;;;;;2.65;0.80;;;8.20;99.90;;;;;;5037835;28;20199;-78
2023/05/26 03:10:30;;;;;;;0.80;0.80;;;8.30;99.90;;;;;;5037200;28;20199;-78
2023/05/26 03:12:58;;;;;;;0.50;0.40;;;8.40;99.90;;;;;;5037493;28;20225;-78
2023/05/26 03:15:25;;;;;;;0.50;0.50;;;8.50;99.90;;;;;;5037012;28;20291;-78
2023/05/26 03:17:52;;;;;;;0.50;0.40;;;8.60;99.90;;;;;;5037929;28;20234;-77
2023/05/26 03:20:19;;;;;;;0.50;0.40;;;8.70;99.90;;;;;;5036244;28;20234;-77
2023/05/26 03:22:46;;;;;;;0.50;0.40;;;8.80;99.90;;;;;;5034788;28;20281;-79
2023/05/26 03:25:13;;;;;;;1.50;0.90;;;8.80;99.90;;;;;;5034814;28;20195;-77
2023/05/26 03:27:40;;;;;;;0.50;0.40;;;8.80;99.90;;;;;;5034607;28;20195;-78
2023/05/26 03:30:09;;;;;;;0.50;0.40;;;8.90;99.90;;;;;;5037242;28;20599;-78
2023/05/26 03:32:36;;;;;;;0.50;0.40;;;9.00;99.90;;;;;;5035894;28;20211;-78
2023/05/26 03:35:03;;;;;;;0.50;0.40;;;9.00;99.90;;;;;;5035069;28;20226;-78
2023/05/26 03:37:30;;;;;;;0.93;0.63;;;9.00;99.90;;;;;;5035286;28;20209;-78
2023/05/26 03:39:57;;;;;;;3.15;2.78;;;9.10;99.90;;;;;;5035414;28;20278;-78
2023/05/26 03:42:24;;;;;;;0.50;0.40;;;9.20;99.90;;;;;;5035534;28;20205;-78
2023/05/26 03:44:51;;;;;;;0.50;0.40;;;9.20;99.90;;;;;;5034796;28;20261;-78
2023/05/26 03:47:20;;;;;;;0.50;0.40;;;9.20;99.90;;;;;;5034538;28;20282;-79
2023/05/26 03:49:47;;;;;;;0.50;0.40;;;9.30;99.90;;;;;;5027626;28;20637;-78
2023/05/26 03:52:14;;;;;;;0.50;0.40;;;9.30;99.90;;;;;;5035409;28;20254;-79
2023/05/26 03:54:41;;;;;;;0.60;0.60;;;9.30;99.90;;;;;;5034244;28;20683;-78
2023/05/26 03:57:08;;;;;;;1.75;1.75;;;9.30;99.90;;;;;;5034828;28;20199;-78
2023/05/26 03:59:35;;;;;;;0.50;0.40;;;9.40;99.90;;;;;;5034575;28;20641;-78
2023/05/26 04:02:02;;;;;;;0.50;0.43;;;9.40;99.90;;;;;;5034155;28;20694;-78
2023/05/26 04:04:30;;;;;;;0.50;0.40;;;9.50;99.90;;;;;;5033649;28;20216;-78
2023/05/26 04:06:57;;;;;;;0.80;0.80;;;9.40;99.90;;;;;;5034056;28;20230;-78
2023/05/26 04:09:24;;;;;;;0.50;0.40;;;9.50;99.90;;;;;;5034259;28;20201;-78
2023/05/26 04:11:51;;;;;;;1.35;0.98;;;9.50;99.90;;;;;;5033877;28;20282;-78
2023/05/26 04:14:18;;;;;;;3.95;3.72;;;9.50;99.90;;;;;;5033316;28;20219;-78
2023/05/26 04:16:44;;;;;;;0.50;0.40;;;9.50;99.90;;;;;;5033921;28;20283;-78
2023/05/26 04:19:11;;;;;;;1.00;0.70;;;9.50;99.90;;;;;;5034201;28;20199;-78
2023/05/26 04:21:39;;;;;;;0.50;0.40;;;9.60;99.90;;;;;;5033272;28;20230;-78
2023/05/26 04:24:07;;;;;;;1.95;1.45;;;9.70;99.90;;;;;;5033089;28;20288;-77
2023/05/26 04:26:34;;;;;;;0.50;0.40;;;9.70;99.90;;;;;;5033608;28;20649;-79
2023/05/26 04:29:01;;;;;;;0.50;0.40;;;9.70;99.90;;;;;;5030449;28;20207;-79
2023/05/26 04:31:29;;;;;;;1.13;1.13;;;9.70;99.90;;;;;;5031972;28;20273;-78
2023/05/26 04:33:57;;;;;;;0.50;0.40;;;9.70;99.90;;;;;;5033887;28;20273;-78
2023/05/26 04:36:24;;;;;;;0.50;0.40;;;9.60;99.90;;;;;;5034445;28;20706;-77
2023/05/26 04:38:54;;;;;;;0.50;0.40;;;9.60;99.90;;;;;;5033649;28;20200;-78
2023/05/26 04:41:21;;;;;;;0.50;0.40;;;9.70;99.90;;;;;;5033017;28;20284;-77
2023/05/26 04:43:49;;;;;;;0.50;0.40;;;9.80;99.90;;;;;;5024086;28;20306;-77
2023/05/26 04:46:16;;;;;;;0.75;0.60;;;9.90;99.90;;;;;;5031968;28;20187;-77
2023/05/26 04:48:43;;;;;;;0.50;0.40;;;9.90;99.90;;;;;;5031599;28;20200;-77
2023/05/26 04:51:10;;;;;;;0.50;0.40;;;9.90;99.90;;;;;;5032368;28;20198;-77
2023/05/26 04:53:36;;;;;;;0.50;0.50;;;10.00;99.90;;;;;;5032080;28;20215;-78
2023/05/26 04:56:05;;;;;;;0.50;0.40;;;10.00;99.90;;;;;;5032335;28;20219;-77
2023/05/26 04:58:32;;;;;;;0.50;0.40;;;10.00;99.90;;;;;;5033330;28;20203;-78
2023/05/26 05:01:02;;;;;;;0.98;0.98;;;10.10;99.90;;;;;;5032523;28;20544;-77
2023/05/26 05:03:29;;;;;;;2.05;1.33;;;10.20;99.90;;;;;;5032722;28;20223;-77
2023/05/26 05:05:56;;;;;;;0.50;0.40;;;10.30;99.90;;;;;;5033109;28;20207;-77
2023/05/26 05:08:23;;;;;;;8.02;1.02;;;10.30;99.90;;;;;;5033250;28;20211;-77
2023/05/26 05:10:50;;;;;;;0.50;0.40;;;10.30;99.90;;;;;;5024933;28;20287;-77
2023/05/26 05:13:18;;;;;;;1.50;0.85;;;10.30;99.90;;;;;;5034226;28;20297;-77
2023/05/26 05:15:45;;;;;;;0.50;0.40;;;10.40;99.90;;;;;;5035966;28;20211;-77
2023/05/26 05:18:12;;;;;;;0.50;0.40;;;10.40;99.90;;;;;;5037634;28;20573;-78
2023/05/26 05:20:39;;;;;;;0.50;0.40;;;10.50;99.90;;;;;;5040199;28;20202;-79
2023/05/26 05:23:05;;;;;;;0.80;0.57;;;10.60;99.90;;;;;;5039101;28;20559;-76
2023/05/26 05:25:32;;;;;;;10.37;1.07;;;10.70;99.90;;;;;;5038983;28;20462;-78
2023/05/26 05:27:59;;;;;;;0.50;0.40;;;10.70;99.90;;;;;;5039360;28;20430;-78
2023/05/26 05:30:27;;;;;;;0.50;0.40;;;10.80;99.90;;;;;;5038931;28;20282;-77
2023/05/26 05:32:54;;;;;;;0.50;0.40;;;10.90;99.90;;;;;;5038597;28;20215;-78
2023/05/26 05:35:21;;;;;;;0.50;0.50;;;10.90;99.90;;;;;;5038646;28;20226;-77
2023/05/26 05:37:49;;;;;;;0.50;0.40;;;10.80;99.90;;;;;;5041419;28;20203;-77
2023/05/26 05:40:16;;;;;;;0.50;0.40;;;10.80;99.90;;;;;;5040736;28;20202;-77
2023/05/26 05:42:43;;;;;;;0.50;0.40;;;10.90;99.90;;;;;;5040559;28;20541;-79
2023/05/26 05:45:11;;;;;;;10.07;1.05;;;10.90;99.90;;;;;;5040582;28;20191;-78
2023/05/26 05:47:39;;;;;;;0.50;0.40;;;11.10;99.90;;;;;;5037703;28;20647;-78
2023/05/26 05:50:07;;;;;;;0.80;0.80;;;11.10;99.90;;;;;;5038327;28;20932;-78
2023/05/26 05:52:33;;;;;;;0.50;0.40;;;11.10;99.90;;;;;;5037182;28;20235;-77
2023/05/26 05:55:00;;;;;;;0.50;0.40;;;11.20;99.90;;;;;;5037004;28;20682;-79
2023/05/26 05:57:27;;;;;;;0.50;0.40;;;11.20;99.90;;;;;;5038040;28;20446;-78
2023/05/26 05:59:54;;;;;;;0.50;0.50;;;11.40;99.90;;;;;;5037220;28;20227;-78
2023/05/26 06:02:21;;;;;;;0.50;0.40;;;11.60;99.90;;;;;;5037814;28;20877;-79
2023/05/26 06:04:49;;;;;;;0.50;0.40;;;11.70;99.90;;;;;;5038279;28;20450;-78
2023/05/26 06:07:16;;;;;;;3.05;1.85;;;11.80;99.90;;;;;;5039454;28;20470;-79
2023/05/26 06:09:43;;;;;;;0.50;0.47;;;12.00;99.90;;;;;;5038693;28;20267;-78
2023/05/26 06:12:09;;;;;;;0.50;0.40;;;12.00;99.90;;;;;;5037655;28;20525;-79
2023/05/26 06:14:38;;;;;;;0.50;0.50;;;12.30;99.90;;;;;;5036949;28;20496;-76
2023/05/26 06:17:05;;;;;;;0.50;0.40;;;12.40;99.90;;;;;;5036965;28;21016;-79
2023/05/26 06:19:32;;;;;;;0.90;0.90;;;12.50;99.90;;;;;;5036611;28;20862;-79
2023/05/26 06:22:00;;;;;;;0.50;0.40;;;12.80;99.90;;;;;;5037310;28;20473;-79
2023/05/26 06:24:27;;;;;;;0.50;0.40;;;12.90;99.90;;;;;;5036222;28;21063;-78
2023/05/26 06:26:54;;;;;;;0.50;0.50;;;13.30;99.90;;;;;;5029909;28;20562;-79
2023/05/26 06:29:21;;;;;;;1.80;1.10;;;14.10;99.90;;;;;;5036406;28;20469;-78
2023/05/26 06:31:47;;;;;;;0.50;0.40;;;14.70;99.90;;;;;;5035797;28;20513;-77
2023/05/26 06:34:14;;;;;;;0.70;0.70;;;15.00;99.90;;;;;;5036154;28;20672;-79
2023/05/26 06:36:41;;;;;;;0.50;0.40;;;15.00;99.90;;;;;;5030371;22;20521;-82
2023/05/26 06:39:09;;;;;;;0.50;0.43;;;15.10;99.90;;;;;;5018217;28;20521;-82
2023/05/26 06:41:36;;;;;;;0.50;0.50;;;14.90;99.90;;;;;;5027239;28;20533;-81
2023/05/26 06:44:03;;;;;;;1.33;1.23;;;15.20;99.90;;;;;;5024603;28;21009;-82
2023/05/26 06:46:30;;;;;;;0.50;0.50;;;15.00;99.90;;;;;;5024294;28;20459;-81
2023/05/26 06:48:57;;;;;;;0.50;0.40;;;15.40;99.90;;;;;;5026940;28;20453;-77
2023/05/26 06:51:24;;;;;;;7.83;0.80;;;16.10;99.90;;;;;;5027252;28;20450;-82
2023/05/26 06:53:51;;;;;;;0.53;0.43;;;16.90;99.90;;;;;;5024807;28;20443;-80
2023/05/26 06:56:19;;;;;;;0.77;0.60;;;16.70;99.90;;;;;;5024140;28;20475;-82
2023/05/26 06:58:46;;;;;;;0.90;0.90;;;16.80;99.90;;;;;;5025767;28;20939;-81
2023/05/26 07:01:12;;;;;;;0.50;0.40;;;17.10;99.90;;;;;;5027412;28;20474;-84
2023/05/26 07:03:39;;;;;;;0.67;0.60;;;18.10;99.90;;;;;;5026764;28;20473;-81
2023/05/26 07:06:06;;;;;;;0.50;0.40;;;18.40;99.90;;;;;;5024528;28;20493;-81
2023/05/26 07:08:33;;;;;;;0.50;0.40;;;18.80;99.90;;;;;;5024763;28;20456;-80
2023/05/26 07:11:00;;;;;;;0.50;0.40;;;19.60;99.80;;;;;;5027945;28;20521;-77
2023/05/26 07:13:28;;;;;;;0.50;0.40;;;20.60;91.30;;;;;;5027150;28;20525;-84
2023/05/26 07:15:55;;;;;;;0.60;0.50;;;20.90;88.10;;;;;;5023376;28;20489;-81
2023/05/26 07:18:22;;;;;;;0.50;0.40;;;21.20;86.30;;;;;;5023503;28;20901;-80
2023/05/26 07:20:49;;;;;;;0.50;0.30;;;21.90;84.20;;;;;;5026508;28;21148;-79
2023/05/26 07:23:16;;;;;;;5.40;0.83;;;22.40;79.90;;;;;;5027904;28;20450;-83
2023/05/26 07:25:43;;;;;;;1.87;1.77;;;22.70;76.10;;;;;;5026153;28;20550;-82
2023/05/26 07:28:09;;;;;;;2.50;2.40;;;22.90;77.30;;;;;;5025571;28;20447;-80
2023/05/26 07:30:38;;;;;;;0.50;0.30;;;23.30;74.20;;;;;;5033475;28;20894;-83
2023/05/26 07:33:05;;;;;;;0.70;0.70;;;23.90;75.00;;;;;;5024238;28;20489;-79
2023/05/26 07:35:31;;;;;;;4.77;1.50;;;24.20;72.80;;;;;;5023212;28;20489;-80
2023/05/26 07:37:59;;;;;;;0.97;0.80;;;24.00;70.30;;;;;;5016705;28;20986;-82
2023/05/26 07:40:29;;;;;;;1.00;0.67;;;24.30;70.30;;;;;;5027546;28;20465;-81
2023/05/26 07:42:55;;;;;;;2.40;1.83;;;24.60;68.00;;;;;;5042612;28;20513;-81
2023/05/26 07:45:22;;;;;;;0.50;0.40;;;23.90;68.40;;;;;;5042127;28;20462;-79
2023/05/26 07:47:51;;;;;;;1.00;0.40;;;24.20;68.40;;;;;;5040776;28;20441;-83
2023/05/26 07:50:17;;;;;;;0.50;0.40;;;24.70;68.60;;;;;;5039919;28;20420;-80
2023/05/26 07:52:44;;;;;;;5.40;0.60;;;25.00;68.90;;;;;;5042743;28;20451;-81
2023/05/26 07:55:11;;;;;;;0.50;0.40;;;25.40;64.30;;;;;;5043219;28;20517;-79
2023/05/26 07:57:38;;;;;;;0.70;0.60;;;25.30;64.40;;;;;;5042203;28;20492;-81
2023/05/26 08:00:06;;;;;;;0.50;0.30;;;25.80;63.40;;;;;;5040704;28;20470;-81
2023/05/26 08:02:33;;;;;;;0.50;0.30;;;26.20;63.20;;;;;;5038407;28;20470;-80
2023/05/26 08:05:01;;;;;;;3.40;1.83;;;26.30;60.30;;;;;;5013374;28;20438;-81
2023/05/26 08:07:28;;;;;;;1.07;0.97;;;26.10;62.60;;;;;;5029090;28;20449;-79
2023/05/26 08:09:55;;;;;;;8.90;1.90;;;26.50;63.10;;;;;;5030462;28;20435;-83
2023/05/26 08:12:21;;;;;;;0.70;0.70;;;27.20;61.00;;;;;;5029065;28;20780;-84
2023/05/26 08:14:49;;;;;;;0.60;0.40;;;27.90;59.70;;;;;;5033286;28;20514;-84
2023/05/26 08:17:16;;;;;;;0.50;0.30;;;27.90;60.00;;;;;;5032033;28;20501;-83
2023/05/26 08:19:43;;;;;;;0.50;0.30;;;28.10;59.30;;;;;;5032208;28;20450;-82
2023/05/26 08:22:11;;;;;;;0.50;0.30;;;28.80;57.90;;;;;;5035311;28;20441;-81
2023/05/26 08:24:38;;;;;;;0.70;0.50;;;29.30;56.50;;;;;;5041790;28;20510;-82
2023/05/26 08:27:05;;;;;;;0.50;0.30;;;29.40;55.00;;;;;;5037197;28;20478;-84
2023/05/26 08:29:32;;;;;;;0.50;0.40;;;29.20;56.10;;;;;;5032930;28;20443;-81
2023/05/26 08:31:59;;;;;;;0.90;0.50;;;30.00;56.10;;;;;;5032585;28;20503;-83
2023/05/26 08:34:26;;;;;;;0.57;0.57;;;30.50;53.60;;;;;;5035250;28;20442;-82
2023/05/26 08:36:53;;;;;;;0.50;0.30;;;29.80;56.10;;;;;;5032146;28;20497;-83
2023/05/26 08:39:21;;;;;;;0.50;0.30;;;29.90;56.20;;;;;;5029291;28;20466;-82
2023/05/26 08:41:49;;;;;;;0.50;0.30;;;30.40;54.90;;;;;;5029075;28;20526;-83
2023/05/26 08:44:17;;;;;;;0.70;0.50;;;30.70;54.00;;;;;;5031480;28;20435;-80
2023/05/26 08:46:45;;;;;;;0.50;0.30;;;30.40;51.40;;;;;;5035331;28;20558;-83
2023/05/26 08:49:17;;;;;;;0.50;0.30;;;30.20;54.60;;;;;;5039467;28;20444;-82
2023/05/26 08:51:47;;;;;;;2.00;1.90;;;30.20;53.10;;;;;;5037787;28;20434;-82
2023/05/26 08:54:13;;;;;;;0.50;0.30;;;30.00;51.80;;;;;;5029990;28;20439;-80
2023/05/26 08:56:42;;;;;;;0.50;0.30;;;30.20;54.30;;;;;;5029507;28;20488;-81
2023/05/26 08:59:11;;;;;;;2.30;2.20;;;29.70;53.30;;;;;;5028399;28;20439;-80
2023/05/26 09:01:38;;;;;;;0.50;0.30;;;29.80;53.10;;;;;;5027957;28;20889;-79
2023/05/26 09:04:05;;;;;;;0.50;0.40;;;30.60;53.70;;;;;;5029037;28;20489;-83
2023/05/26 09:06:34;;;;;;;0.50;0.30;;;30.70;53.50;;;;;;5027671;28;20561;-80
2023/05/26 09:09:01;;;;;;;0.50;0.30;;;31.30;51.60;;;;;;5032028;28;20469;-83
2023/05/26 09:11:28;;;;;;;0.50;0.30;;;31.70;50.50;;;;;;5029528;28;20446;-80
2023/05/26 09:13:57;;;;;;;0.60;0.53;;;31.90;49.60;;;;;;5028570;28;20446;-82
2023/05/26 09:16:25;;;;;;;0.50;0.30;;;30.00;49.80;;;;;;5029185;28;20482;-80
2023/05/26 09:18:57;;;;;;;0.50;0.40;;;29.80;52.90;;;;;;5026811;28;20806;-83
2023/05/26 09:21:27;;;;;;;3.63;1.03;;;30.70;52.80;;;;;;5027238;28;20446;-82
2023/05/26 09:23:57;;;;;;;0.50;0.50;;;30.90;51.10;;;;;;5027188;28;20517;-84
2023/05/26 09:26:31;;;;;;;2.07;1.67;;;30.50;50.20;;;;;;5031269;28;20556;-78
2023/05/26 09:29:00;;;;;;;0.70;0.63;;;30.30;52.00;;;;;;5027619;28;20498;-81
2023/05/26 09:31:38;;;;;;;1.63;1.53;;;29.90;51.70;;;;;;5028062;28;20448;-81
2023/05/26 09:34:05;;;;;;;0.50;0.30;;;30.10;52.50;;;;;;5020447;28;20449;-83
2023/05/26 09:36:33;;;;;;;0.50;0.50;;;30.60;51.60;;;;;;5028607;28;20546;-80
2023/05/26 09:39:01;;;;;;;11.63;2.30;;;30.80;51.50;;;;;;5027768;28;20442;-80
2023/05/26 09:41:36;;;;;;;1.67;0.80;;;31.00;51.40;;;;;;5029793;28;20468;-81
2023/05/26 09:44:11;;;;;;;0.50;0.30;;;30.90;50.70;;;;;;5027461;28;20438;-82
2023/05/26 09:46:39;;;;;;;0.70;0.60;;;30.50;52.30;;;;;;5025917;28;20561;-82
2023/05/26 09:49:12;;;;;;;0.50;0.30;;;31.10;50.30;;;;;;5023445;28;20430;-80
2023/05/26 09:51:39;;;;;;;22.03;1.80;;;31.00;51.50;;;;;;5037433;28;20513;-80
2023/05/26 09:54:08;;;;;;;1.90;0.63;;;31.10;51.70;;;;;;5027312;28;20445;-81
2023/05/26 09:56:37;;;;;;;1.03;0.83;;;31.20;50.40;;;;;;5036609;28;20479;-84
2023/05/26 09:59:05;;;;;;;0.50;0.30;;;30.80;50.80;;;;;;5030293;28;20435;-82
2023/05/26 10:01:37;;;;;;;0.50;0.30;;;31.00;50.50;;;;;;5033293;28;20443;-82
2023/05/26 10:04:06;;;;;;;6.13;2.77;;;31.00;51.80;;;;;;5035171;28;20430;-83
2023/05/26 10:06:35;;;;;;;0.50;0.30;;;31.60;49.90;;;;;;5035064;28;20462;-83
2023/05/26 10:09:03;;;;;;;0.50;0.30;;;31.40;51.20;;;;;;5033235;28;20446;-83
2023/05/26 10:11:33;;;;;;;3.27;0.97;;;31.60;49.50;;;;;;5031462;28;20764;-81
2023/05/26 10:14:00;;;;;;;0.50;0.40;;;31.20;49.10;;;;;;5033544;28;20522;-81
2023/05/26 10:16:27;;;;;;;0.50;0.30;;;31.30;51.60;;;;;;5032657;28;20482;-83
2023/05/26 10:18:55;;;;;;;1.00;0.70;;;32.10;50.20;;;;;;5031009;28;20481;-82
2023/05/26 10:21:28;;;;;;;1.57;0.50;;;31.50;50.20;;;;;;5034977;28;20507;-82
2023/05/26 10:24:00;;;;;;;0.60;0.50;;;30.90;50.30;;;;;;5040031;28;20439;-81
2023/05/26 10:26:32;;;;;;;0.50;0.40;;;31.50;51.50;;;;;;5037635;28;20520;-82
2023/05/26 10:29:05;;;;;;;0.77;0.77;;;31.90;49.50;;;;;;5031861;28;20446;-78
2023/05/26 10:31:34;;;;;;;0.97;0.80;;;32.30;50.90;;;;;;5030514;28;20451;-81
2023/05/26 10:34:13;;;;;;;5.13;2.00;;;32.90;49.80;;;;;;5032627;28;21196;-82
2023/05/26 10:36:41;;;;;;;2.30;2.10;;;31.40;47.90;;;;;;5034426;28;20568;-82
2023/05/26 10:39:11;;;;;;;0.50;0.30;;;31.20;50.00;;;;;;5031286;28;20435;-82
2023/05/26 10:41:39;;;;;;;0.50;0.30;;;31.70;48.70;;;;;;5030895;28;20466;-82
2023/05/26 10:44:07;;;;;;;0.50;0.30;;;31.60;50.40;;;;;;5038086;28;20466;-78
2023/05/26 10:46:38;;;;;;;0.50;0.40;;;31.30;49.80;;;;;;5031571;28;20459;-81
2023/05/26 10:49:20;;;;;;;0.50;0.40;;;31.70;48.60;;;;;;5033383;28;20504;-82
2023/05/26 10:51:50;;;;;;;0.50;0.30;;;31.90;50.70;;;;;;5033893;28;20434;-82
2023/05/26 10:54:21;;;;;;;1.07;1.07;;;31.30;49.80;;;;;;5030796;28;20502;-81
2023/05/26 10:56:50;;;;;;;0.50;0.30;;;31.10;49.60;;;;;;5031825;28;20482;-81
2023/05/26 10:59:21;;;;;;;0.50;0.40;;;31.30;49.40;;;;;;5034309;28;20449;-81
2023/05/26 11:01:53;;;;;;;0.50;0.30;;;31.40;48.80;;;;;;5033943;28;20441;-81
2023/05/26 11:04:22;;;;;;;0.50;0.30;;;30.50;49.40;;;;;;5030344;28;20461;-81
2023/05/26 11:06:51;;;;;;;0.50;0.30;;;30.40;50.90;;;;;;5031300;28;20459;-81
2023/05/26 11:09:22;;;;;;;0.50;0.30;;;30.30;51.30;;;;;;5033058;28;20473;-80
2023/05/26 11:11:54;;;;;;;0.50;0.30;;;30.40;52.20;;;;;;5032496;28;20521;-81
2023/05/26 11:14:25;;;;;;;0.50;0.40;;;31.10;50.70;;;;;;5029676;28;20446;-82
2023/05/26 11:16:56;;;;;;;0.50;0.30;;;31.30;51.00;;;;;;5029745;28;20505;-81
2023/05/26 11:19:32;;;;;;;0.50;0.40;;;31.30;50.40;;;;;;5027364;28;20450;-81
2023/05/26 11:21:59;;;;;;;0.50;0.30;;;31.30;49.80;;;;;;5034989;28;20449;-82
2023/05/26 11:24:26;;;;;;;0.50;0.40;;;31.60;49.00;;;;;;5036388;28;20442;-80
2023/05/26 11:26:53;;;;;;;0.50;0.40;;;31.30;47.50;;;;;;5030633;28;20463;-83
2023/05/26 11:29:23;;;;;;;2.87;2.63;;;30.50;47.50;;;;;;5025915;28;20439;-82
2023/05/26 11:31:51;;;;;;;0.63;0.63;;;30.40;49.60;;;;;;5031001;28;20458;-80
2023/05/26 11:34:18;;;;;;;1.13;0.40;;;30.20;48.50;;;;;;5030653;28;20513;-82
2023/05/26 11:36:48;;;;;;;0.50;0.30;;;30.60;51.00;;;;;;5031060;28;20497;-81
2023/05/26 11:39:16;;;;;;;1.97;1.33;;;30.60;48.30;;;;;;5020457;28;20439;-82
2023/05/26 11:41:43;;;;;;;0.50;0.30;;;30.20;48.50;;;;;;5026514;28;20447;-80
2023/05/26 11:44:12;;;;;;;0.50;0.40;;;30.10;49.20;;;;;;5032450;28;20495;-81
2023/05/26 11:46:40;;;;;;;0.50;0.30;;;29.80;48.80;;;;;;5034167;28;20468;-82
2023/05/26 11:49:13;;;;;;;5.23;0.77;;;29.70;50.10;;;;;;5027594;28;20451;-81
2023/05/26 11:51:47;;;;;;;1.03;0.97;;;30.20;49.50;;;;;;5024527;28;20452;-79
2023/05/26 11:54:14;;;;;;;0.50;0.30;;;30.00;48.40;;;;;;5022891;28;20517;-81
2023/05/26 11:56:43;;;;;;;0.50;0.30;;;30.40;49.40;;;;;;5030198;28;20538;-81
2023/05/26 11:59:09;;;;;;;0.50;0.30;;;30.70;48.10;;;;;;5028111;28;20446;-82
2023/05/26 12:01:36;;;;;;;0.73;0.73;;;30.40;49.40;;;;;;5025856;28;20498;-81
2023/05/26 12:04:05;;;;;;;2.53;1.13;;;30.90;49.10;;;;;;5027268;28;20457;-80
2023/05/26 12:06:32;;;;;;;0.80;0.30;;;31.00;46.50;;;;;;5028408;28;20462;-82
2023/05/26 12:09:03;;;;;;;0.50;0.30;;;30.80;48.70;;;;;;5026933;28;20802;-81
2023/05/26 12:11:34;;;;;;;2.83;0.63;;;31.00;47.80;;;;;;5031982;28;20438;-82
2023/05/26 12:14:03;;;;;;;0.50;0.50;;;31.30;46.50;;;;;;5026247;28;20448;-79
2023/05/26 12:16:32;;;;;;;0.50;0.30;;;30.30;44.70;;;;;;5029460;28;20484;-79
2023/05/26 12:19:02;;;;;;;0.50;0.30;;;30.20;46.50;;;;;;5025295;28;20554;-82
2023/05/26 12:21:29;;;;;;;0.50;0.30;;;30.00;47.00;;;;;;5024164;28;20465;-79
2023/05/26 12:23:58;;;;;;;0.50;0.43;;;29.70;46.40;;;;;;5023797;28;20453;-80
2023/05/26 12:26:27;;;;;;;0.50;0.37;;;30.30;47.20;;;;;;5025687;28;20552;-81
2023/05/26 12:29:07;;;;;;;0.50;0.30;;;31.20;46.40;;;;;;5026973;28;20445;-82
2023/05/26 12:31:40;;;;;;;0.50;0.30;;;31.40;47.40;;;;;;5027406;28;20634;-81
2023/05/26 12:34:08;;;;;;;0.50;0.40;;;31.50;45.10;;;;;;5025928;28;20745;-83
2023/05/26 12:36:35;;;;;;;0.50;0.30;;;31.40;44.40;;;;;;5027342;28;20470;-80
2023/05/26 12:39:02;;;;;;;0.50;0.30;;;31.20;44.10;;;;;;5024310;28;20484;-82
2023/05/26 12:41:30;;;;;;;0.50;0.30;;;31.30;44.80;;;;;;5032233;22;20490;-82
2023/05/26 12:43:59;;;;;;;2.70;0.60;;;31.50;45.00;;;;;;5028653;28;20446;-82
2023/05/26 12:46:26;;;;;;;0.50;0.40;;;31.40;43.40;;;;;;5034493;28;20442;-83
2023/05/26 12:48:53;;;;;;;0.50;0.30;;;30.30;43.90;;;;;;5034921;28;20461;-82
2023/05/26 12:51:20;;;;;;;0.50;0.30;;;29.90;44.00;;;;;;5035678;28;20557;-83
2023/05/26 12:53:47;;;;;;;0.70;0.70;;;30.20;45.60;;;;;;5035742;28;20466;-82
2023/05/26 12:56:13;;;;;;;0.50;0.37;;;30.30;46.00;;;;;;5036638;28;20513;-81